Time;durP1;ratioP1;P1;durP2;ratioP2;P2;SDS_P1;SDS_P2;PMS_P1;PMS_P2;Temp;Humidity;BMP_temperature;BMP_pressure;BME280_temperature;BME280_humidity;BME280_pressure;Samples;Min_cycle;Max_cycle;Signal;HPM_P1;HPM_P2
2022/09/16 00:01:18;;;;;;;0.82;0.80;;;;;;;25.36;34.10;97685.06;5021761;28;20467;-86
2022/09/16 00:03:44;;;;;;;1.30;0.90;;;;;;;25.31;34.21;97672.44;5025378;28;20038;-86
2022/09/16 00:06:19;;;;;;;0.93;0.80;;;;;;;25.34;34.35;97674.50;5025091;28;20030;-86
2022/09/16 00:08:45;;;;;;;0.68;0.60;;;;;;;25.32;34.29;97668.59;5025291;28;20104;-86
2022/09/16 00:11:11;;;;;;;1.88;0.95;;;;;;;25.32;34.20;97674.06;5027435;28;20103;-86
2022/09/16 00:13:40;;;;;;;1.95;0.73;;;;;;;25.33;34.35;97674.84;5022976;28;20361;-87
2022/09/16 00:16:10;;;;;;;1.17;0.80;;;;;;;25.25;34.39;97676.53;5027448;28;20063;-87
2022/09/16 00:18:36;;;;;;;0.70;0.70;;;;;;;25.30;34.29;97677.13;5008490;28;20026;-86
2022/09/16 00:21:01;;;;;;;1.13;0.73;;;;;;;25.30;34.35;97677.13;5023627;28;20127;-86
2022/09/16 00:23:27;;;;;;;0.70;0.70;;;;;;;25.29;34.18;97681.00;5027600;28;20028;-86
2022/09/16 00:25:53;;;;;;;0.68;0.68;;;;;;;25.28;34.33;97679.44;5019662;28;20527;-86
2022/09/16 00:28:20;;;;;;;1.95;0.98;;;;;;;25.26;34.14;97681.69;5026432;28;20273;-87
2022/09/16 00:30:46;;;;;;;0.88;0.88;;;;;;;25.23;34.34;97665.19;5022755;28;20022;-86
2022/09/16 00:33:12;;;;;;;0.60;0.60;;;;;;;25.26;34.12;97675.44;5022707;28;20032;-86
2022/09/16 00:35:38;;;;;;;1.10;0.80;;;;;;;25.25;33.99;97677.38;5027224;28;20429;-86
2022/09/16 00:38:03;;;;;;;0.93;0.80;;;;;;;25.24;34.25;97667.56;5022262;28;20025;-86
2022/09/16 00:40:29;;;;;;;0.70;0.65;;;;;;;25.23;34.44;97676.94;5027110;28;20025;-86
2022/09/16 00:42:54;;;;;;;1.70;1.00;;;;;;;25.23;34.33;97674.19;5023080;28;20100;-86
2022/09/16 00:45:24;;;;;;;0.60;0.60;;;;;;;25.23;34.35;97663.25;5026042;28;20112;-86
2022/09/16 00:47:57;;;;;;;0.80;0.80;;;;;;;25.22;33.98;97661.66;5024229;28;20033;-86
2022/09/16 00:50:47;;;;;;;1.08;0.80;;;;;;;25.20;34.21;97674.06;5020794;28;20056;-86
2022/09/16 00:53:21;;;;;;;0.68;0.60;;;;;;;25.19;34.33;97675.22;5028888;28;20478;-86
2022/09/16 00:55:46;;;;;;;0.98;0.80;;;;;;;25.19;34.37;97670.56;5009358;28;20051;-87
2022/09/16 00:58:48;;;;;;;0.95;0.60;;;;;;;25.20;34.19;97668.59;5029772;28;20029;-86
2022/09/16 01:01:14;;;;;;;0.55;0.55;;;;;;;25.18;34.35;97668.97;5019996;28;20081;-86
2022/09/16 01:03:50;;;;;;;1.13;0.60;;;;;;;25.18;34.31;97668.97;5028618;28;20445;-86
2022/09/16 01:06:15;;;;;;;2.47;0.80;;;;;;;25.18;33.99;97668.97;5027324;28;20065;-86
2022/09/16 01:08:41;;;;;;;0.60;0.60;;;;;;;25.16;34.22;97665.78;5025939;28;20041;-86
2022/09/16 01:11:07;;;;;;;1.65;0.47;;;;;;;25.16;34.22;97659.53;5030371;28;20025;-86
2022/09/16 01:13:32;;;;;;;0.50;0.50;;;;;;;25.15;34.10;97658.75;5021993;28;20390;-86
2022/09/16 01:16:09;;;;;;;0.60;0.60;;;;;;;25.14;33.99;97659.88;5028947;28;20104;-86
2022/09/16 01:18:39;;;;;;;0.60;0.60;;;;;;;25.14;34.05;97667.28;5026071;28;20029;-86
2022/09/16 01:21:10;;;;;;;0.68;0.65;;;;;;;25.13;34.28;97658.31;5027879;28;20374;-86
2022/09/16 01:23:54;;;;;;;0.57;0.57;;;;;;;25.13;34.28;97661.03;5030151;28;20021;-86
2022/09/16 01:26:57;;;;;;;0.50;0.50;;;;;;;25.11;34.38;97657.84;5026765;28;20075;-86
2022/09/16 01:29:37;;;;;;;0.90;0.80;;;;;;;25.11;34.38;97655.09;5030070;28;20025;-86
2022/09/16 01:32:21;;;;;;;0.75;0.57;;;;;;;25.11;34.30;97657.84;5019684;28;20466;-86
2022/09/16 01:34:52;;;;;;;0.60;0.60;;;;;;;25.07;34.02;97655.03;5029288;28;20025;-86
2022/09/16 01:37:44;;;;;;;1.00;0.60;;;;;;;25.08;34.14;97655.84;5028166;28;20379;-86
2022/09/16 01:40:22;;;;;;;0.60;0.60;;;;;;;25.06;34.25;97649.91;5026838;28;20433;-86
2022/09/16 01:43:17;;;;;;;0.60;0.60;;;;;;;25.06;34.08;97647.16;5026761;28;20044;-86
2022/09/16 01:46:10;;;;;;;0.63;0.60;;;;;;;25.07;34.29;97648.78;5010510;28;20029;-87
2022/09/16 01:48:58;;;;;;;0.88;0.70;;;;;;;25.05;34.15;97651.06;5010919;28;20578;-87
2022/09/16 01:51:34;;;;;;;0.65;0.60;;;;;;;25.02;34.23;97644.34;5011369;28;20029;-87
2022/09/16 01:54:02;;;;;;;0.68;0.68;;;;;;;25.04;34.16;97650.28;5010242;28;20025;-87
2022/09/16 01:56:35;;;;;;;0.60;0.60;;;;;;;25.05;34.27;97645.59;5023095;28;20044;-86
2022/09/16 01:59:14;;;;;;;0.60;0.60;;;;;;;25.01;34.22;97641.97;5028087;28;20082;-86
2022/09/16 02:01:56;;;;;;;0.50;0.50;;;;;;;25.04;34.14;97647.53;5006257;28;20467;-86
2022/09/16 02:04:27;;;;;;;0.60;0.60;;;;;;;25.02;34.20;97646.28;5025663;28;20410;-86
2022/09/16 02:06:53;;;;;;;0.60;0.60;;;;;;;25.00;34.02;97640.38;5023648;28;20025;-87
2022/09/16 02:09:21;;;;;;;3.00;0.60;;;;;;;25.02;34.29;97640.81;5001684;28;20445;-87
2022/09/16 02:11:48;;;;;;;0.57;0.57;;;;;;;25.02;34.14;97638.09;5010449;28;20045;-87
2022/09/16 02:14:21;;;;;;;0.50;0.50;;;;;;;24.99;34.23;97633.31;5024818;28;20030;-87
2022/09/16 02:16:53;;;;;;;0.80;0.60;;;;;;;25.00;34.28;97640.38;5027770;28;20036;-87
2022/09/16 02:19:22;;;;;;;1.25;0.60;;;;;;;24.99;33.99;97636.06;5023822;28;20146;-86
2022/09/16 02:21:49;;;;;;;0.40;0.40;;;;;;;24.97;33.96;97636.41;5026868;28;20274;-87
2022/09/16 02:24:16;;;;;;;1.00;0.60;;;;;;;24.98;34.23;97634.50;5025168;28;20026;-87
2022/09/16 02:26:45;;;;;;;0.40;0.40;;;;;;;24.97;34.02;97625.47;5008207;28;20093;-87
2022/09/16 02:29:20;;;;;;;0.50;0.50;;;;;;;24.97;34.20;97630.16;5010760;28;20029;-86
2022/09/16 02:31:46;;;;;;;0.50;0.50;;;;;;;24.95;34.04;97630.50;5009425;28;20063;-86
2022/09/16 02:34:25;;;;;;;0.60;0.60;;;;;;;24.97;34.00;97635.63;5025883;28;20519;-87
2022/09/16 02:36:55;;;;;;;1.35;0.50;;;;;;;24.93;34.24;97625.38;5023971;28;20100;-86
2022/09/16 02:39:25;;;;;;;0.52;0.52;;;;;;;24.95;34.31;97627.78;5012325;28;20568;-86
2022/09/16 02:41:50;;;;;;;0.68;0.68;;;;;;;24.94;34.20;97631.66;4993054;28;20029;-86
2022/09/16 02:44:16;;;;;;;0.57;0.50;;;;;;;24.92;33.80;97629.28;5023651;28;20029;-87
2022/09/16 02:47:20;;;;;;;0.70;0.52;;;;;;;24.90;33.99;97626.09;5026329;28;21082;-87
2022/09/16 02:49:59;;;;;;;0.70;0.57;;;;;;;24.88;33.85;97622.91;5026192;28;20033;-86
2022/09/16 02:52:39;;;;;;;0.50;0.50;;;;;;;24.87;33.89;97628.72;5025612;28;20433;-86
2022/09/16 02:55:27;;;;;;;0.60;0.50;;;;;;;24.87;34.16;97621.34;5008684;28;20108;-86
2022/09/16 02:57:52;;;;;;;0.60;0.60;;;;;;;24.85;34.04;97622.81;5024292;28;20021;-86
2022/09/16 03:00:19;;;;;;;0.50;0.50;;;;;;;24.85;33.80;97623.63;5023661;28;20127;-86
2022/09/16 03:02:45;;;;;;;0.70;0.50;;;;;;;24.84;34.18;97632.97;5024983;28;20030;-86
2022/09/16 03:05:10;;;;;;;0.50;0.50;;;;;;;24.84;33.77;97615.78;5028303;28;20159;-86
2022/09/16 03:07:36;;;;;;;0.50;0.50;;;;;;;24.83;33.89;97619.66;5022210;28;20108;-85
2022/09/16 03:10:02;;;;;;;0.55;0.52;;;;;;;24.81;34.08;97628.19;5026216;28;20036;-86
2022/09/16 03:12:49;;;;;;;0.70;0.45;;;;;;;24.83;33.75;97627.84;5024665;28;20031;-86
2022/09/16 03:15:26;;;;;;;0.50;0.50;;;;;;;24.82;34.09;97628.97;5025050;28;20313;-86
2022/09/16 03:18:19;;;;;;;0.73;0.60;;;;;;;24.80;34.06;97625.81;5009649;28;20025;-85
2022/09/16 03:20:53;;;;;;;1.08;0.45;;;;;;;24.80;33.82;97625.81;5024682;28;20110;-86
2022/09/16 03:23:38;;;;;;;0.65;0.60;;;;;;;24.78;33.85;97623.41;5027921;28;20037;-85
2022/09/16 03:26:27;;;;;;;0.50;0.45;;;;;;;24.77;33.74;97626.50;5022631;28;20029;-85
2022/09/16 03:29:16;;;;;;;0.77;0.60;;;;;;;24.75;33.79;97624.13;5025030;28;20409;-85
2022/09/16 03:32:14;;;;;;;0.73;0.60;;;;;;;24.70;33.77;97621.66;5022399;28;20504;-85
2022/09/16 03:34:59;;;;;;;1.17;0.40;;;;;;;24.74;34.01;97622.53;5026205;28;20026;-86
2022/09/16 03:37:26;;;;;;;0.50;0.50;;;;;;;24.70;33.85;97616.19;5009495;28;20166;-86
2022/09/16 03:39:54;;;;;;;1.45;0.40;;;;;;;24.70;33.96;97627.13;5009521;28;20037;-86
2022/09/16 03:42:20;;;;;;;0.50;0.50;;;;;;;24.72;33.83;97622.09;5007662;28;20303;-86
2022/09/16 03:44:46;;;;;;;0.65;0.55;;;;;;;24.68;33.82;97619.28;5023947;28;20100;-86
2022/09/16 03:47:11;;;;;;;0.40;0.40;;;;;;;24.69;34.03;97620.06;5027560;28;20030;-88
2022/09/16 03:49:37;;;;;;;0.40;0.40;;;;;;;24.68;34.08;97623.91;5023441;28;20104;-86
2022/09/16 03:52:07;;;;;;;0.47;0.40;;;;;;;24.69;33.67;97629.03;5026345;28;20112;-86
2022/09/16 03:54:33;;;;;;;0.40;0.40;;;;;;;24.69;33.85;97630.97;5021758;28;20548;-86
2022/09/16 03:56:59;;;;;;;0.93;0.40;;;;;;;24.67;33.76;97628.59;5026268;28;20034;-86
2022/09/16 03:59:25;;;;;;;0.75;0.55;;;;;;;24.67;33.68;97627.81;5028059;28;20026;-86
2022/09/16 04:01:51;;;;;;;2.80;0.60;;;;;;;24.68;33.88;97629.38;5021530;28;20347;-86
2022/09/16 04:04:17;;;;;;;0.52;0.40;;;;;;;24.66;33.88;97632.47;5026153;28;20026;-86
2022/09/16 04:06:42;;;;;;;0.47;0.40;;;;;;;24.66;33.75;97631.66;5022817;28;20422;-86
2022/09/16 04:09:11;;;;;;;0.50;0.50;;;;;;;24.63;33.64;97627.72;5026329;28;20061;-86
2022/09/16 04:11:38;;;;;;;0.75;0.32;;;;;;;24.63;33.72;97624.16;5027117;28;20024;-86
2022/09/16 04:14:04;;;;;;;0.73;0.40;;;;;;;24.63;33.97;97629.63;5019021;28;20032;-86
2022/09/16 04:16:30;;;;;;;0.40;0.40;;;;;;;24.60;33.64;97633.88;5025916;28;20029;-86
2022/09/16 04:18:55;;;;;;;0.60;0.40;;;;;;;24.60;33.95;97630.34;5022772;28;20042;-86
2022/09/16 04:21:21;;;;;;;0.40;0.40;;;;;;;24.59;33.75;97634.22;5026319;28;20076;-86
2022/09/16 04:23:47;;;;;;;0.40;0.40;;;;;;;24.59;33.66;97631.47;5026134;28;20497;-86
2022/09/16 04:26:13;;;;;;;0.32;0.32;;;;;;;24.58;33.61;97624.41;5020313;28;20030;-86
2022/09/16 04:28:39;;;;;;;0.50;0.50;;;;;;;24.55;33.81;97626.72;5029631;28;20027;-86
2022/09/16 04:31:06;;;;;;;0.50;0.50;;;;;;;24.55;33.95;97621.25;5027099;28;20039;-86
2022/09/16 04:33:33;;;;;;;0.40;0.40;;;;;;;24.52;33.64;97613.72;5027452;28;20037;-86
2022/09/16 04:36:12;;;;;;;0.65;0.50;;;;;;;24.55;33.90;97617.72;5010573;28;20103;-87
2022/09/16 04:38:39;;;;;;;0.57;0.40;;;;;;;24.53;33.67;97622.72;5027456;28;20032;-86
2022/09/16 04:41:09;;;;;;;0.40;0.40;;;;;;;24.52;33.62;97621.13;5030626;28;20394;-86
2022/09/16 04:43:35;;;;;;;0.57;0.50;;;;;;;24.51;33.84;97620.34;5012350;28;20029;-86
2022/09/16 04:46:00;;;;;;;0.43;0.40;;;;;;;24.51;33.69;97623.06;5030573;28;20049;-86
2022/09/16 04:48:26;;;;;;;1.63;0.40;;;;;;;24.51;33.59;97627.75;5026875;28;20399;-86
2022/09/16 04:50:52;;;;;;;0.40;0.40;;;;;;;24.49;33.97;97628.09;5027757;28;20034;-86
2022/09/16 04:53:19;;;;;;;0.68;0.57;;;;;;;24.50;33.59;97626.13;5028940;28;20172;-86
2022/09/16 04:55:45;;;;;;;0.40;0.35;;;;;;;24.49;33.72;97617.16;5011787;28;20060;-86
2022/09/16 04:58:11;;;;;;;0.30;0.30;;;;;;;24.50;33.52;97624.19;5028988;28;20029;-86
2022/09/16 05:00:36;;;;;;;1.02;0.40;;;;;;;24.50;33.96;97623.41;5023707;28;20032;-86
2022/09/16 05:03:02;;;;;;;0.43;0.40;;;;;;;24.50;33.52;97617.94;5027331;28;20108;-86
2022/09/16 05:05:28;;;;;;;0.50;0.40;;;;;;;24.50;33.81;97616.00;5030716;28;20083;-86
2022/09/16 05:07:54;;;;;;;1.58;0.45;;;;;;;24.48;33.63;97614.78;5026818;28;20429;-86
2022/09/16 05:10:19;;;;;;;0.65;0.40;;;;;;;24.47;33.94;97613.97;5028317;28;20461;-86
2022/09/16 05:12:52;;;;;;;0.35;0.35;;;;;;;24.48;33.86;97610.09;5025610;28;20037;-86
2022/09/16 05:15:18;;;;;;;0.30;0.30;;;;;;;24.47;33.88;97613.97;5029986;28;20128;-86
2022/09/16 05:17:44;;;;;;;0.63;0.30;;;;;;;24.45;33.86;97599.88;5029918;28;20224;-86
2022/09/16 05:20:10;;;;;;;0.30;0.30;;;;;;;24.45;33.66;97610.78;5023306;28;20084;-86
2022/09/16 05:22:36;;;;;;;0.65;0.45;;;;;;;24.45;33.63;97599.88;5030193;28;20445;-86
2022/09/16 05:25:02;;;;;;;0.30;0.30;;;;;;;24.44;33.91;97600.22;5026463;28;20439;-86
2022/09/16 05:27:31;;;;;;;0.73;0.50;;;;;;;24.42;33.88;97602.50;5028801;28;20497;-86
2022/09/16 05:29:57;;;;;;;0.30;0.30;;;;;;;24.44;33.60;97598.31;5026236;28;20029;-86
2022/09/16 05:32:22;;;;;;;0.40;0.40;;;;;;;24.42;33.88;97584.19;5027299;28;20036;-85
2022/09/16 05:34:49;;;;;;;0.40;0.40;;;;;;;24.42;33.75;97592.38;5029844;28;20030;-86
2022/09/16 05:37:18;;;;;;;0.50;0.50;;;;;;;24.43;33.83;97595.91;5024530;28;20487;-86
2022/09/16 05:39:43;;;;;;;0.93;0.40;;;;;;;24.42;33.95;97586.13;5026713;28;20044;-86
2022/09/16 05:42:09;;;;;;;0.40;0.40;;;;;;;24.42;33.93;97595.09;5027329;28;20022;-86
2022/09/16 05:44:35;;;;;;;0.30;0.30;;;;;;;24.40;33.77;97583.75;5027444;28;20057;-86
2022/09/16 05:47:01;;;;;;;0.47;0.40;;;;;;;24.41;33.66;97593.53;5030283;28;20030;-86
2022/09/16 05:49:26;;;;;;;0.30;0.30;;;;;;;24.42;33.73;97595.09;5022884;28;20033;-87
2022/09/16 05:51:52;;;;;;;0.82;0.43;;;;;;;24.43;33.93;97593.19;5027939;28;20124;-86
2022/09/16 05:54:18;;;;;;;0.43;0.40;;;;;;;24.42;33.98;97589.66;5025792;28;20034;-87
2022/09/16 05:56:44;;;;;;;0.32;0.30;;;;;;;24.40;33.76;97583.75;5024706;28;20483;-86
2022/09/16 05:59:10;;;;;;;0.40;0.40;;;;;;;24.43;33.60;97585.78;5028518;28;20104;-86
2022/09/16 06:01:36;;;;;;;0.65;0.40;;;;;;;24.42;33.93;97583.41;5026261;28;20341;-86
2022/09/16 06:04:03;;;;;;;0.60;0.43;;;;;;;24.42;33.60;97580.66;5028255;28;20111;-85
2022/09/16 06:06:34;;;;;;;0.30;0.30;;;;;;;24.39;33.87;97582.16;5024299;28;20037;-85
2022/09/16 06:09:03;;;;;;;0.50;0.50;;;;;;;24.40;33.76;97581.00;5026186;28;20175;-85
2022/09/16 06:11:29;;;;;;;0.45;0.38;;;;;;;24.38;33.77;97577.84;5029465;28;20048;-85
2022/09/16 06:14:01;;;;;;;0.40;0.30;;;;;;;24.39;34.00;97584.91;5022012;28;20025;-86
2022/09/16 06:16:28;;;;;;;0.32;0.32;;;;;;;24.38;33.67;97577.84;5028292;28;20029;-86
2022/09/16 06:18:54;;;;;;;0.38;0.38;;;;;;;24.38;33.94;97572.38;5010462;28;20044;-86
2022/09/16 06:21:20;;;;;;;0.57;0.40;;;;;;;24.37;34.05;97571.59;5028504;28;20051;-86
2022/09/16 06:23:45;;;;;;;0.40;0.40;;;;;;;24.38;33.92;97575.13;5026961;28;20025;-85
2022/09/16 06:26:24;;;;;;;0.35;0.35;;;;;;;24.38;34.04;97573.16;5024406;28;20026;-85
2022/09/16 06:28:50;;;;;;;0.40;0.40;;;;;;;24.38;34.10;97575.13;5029706;28;20034;-85
2022/09/16 06:31:17;;;;;;;0.38;0.30;;;;;;;24.37;34.01;97581.72;5027190;28;20025;-86
2022/09/16 06:33:43;;;;;;;0.55;0.50;;;;;;;24.38;34.00;97586.03;5026776;28;20548;-86
2022/09/16 06:36:13;;;;;;;0.40;0.40;;;;;;;24.38;34.01;97588.75;5025835;28;20033;-86
2022/09/16 06:38:39;;;;;;;0.30;0.30;;;;;;;24.39;33.68;97584.91;5026426;28;20094;-86
2022/09/16 06:41:06;;;;;;;0.30;0.30;;;;;;;24.40;33.66;97586.47;5027566;28;20026;-86
2022/09/16 06:43:32;;;;;;;0.82;0.32;;;;;;;24.39;34.03;97584.91;5021288;28;20098;-86
2022/09/16 06:46:05;;;;;;;0.63;0.30;;;;;;;24.42;33.94;97591.59;5025072;28;20068;-86
2022/09/16 06:48:33;;;;;;;0.30;0.30;;;;;;;24.41;33.97;97599.00;5022679;28;20539;-86
2022/09/16 06:51:00;;;;;;;0.28;0.28;;;;;;;24.39;33.88;97595.81;5026139;28;20037;-87
2022/09/16 06:53:26;;;;;;;0.60;0.30;;;;;;;24.41;33.73;97598.22;5026890;28;20522;-86
2022/09/16 06:55:51;;;;;;;0.40;0.40;;;;;;;24.41;33.73;97593.53;5022432;28;20040;-86
2022/09/16 06:58:17;;;;;;;0.68;0.38;;;;;;;24.38;33.80;97592.28;5028428;28;20021;-86
2022/09/16 07:00:42;;;;;;;0.45;0.35;;;;;;;24.41;33.89;97590.81;5025283;28;20034;-86
2022/09/16 07:03:08;;;;;;;0.40;0.40;;;;;;;24.41;33.76;97596.25;5025030;28;20112;-86
2022/09/16 07:05:34;;;;;;;0.30;0.30;;;;;;;24.41;33.81;97592.75;5028496;28;20076;-86
2022/09/16 07:07:59;;;;;;;0.90;0.43;;;;;;;24.42;33.74;97595.09;5022847;28;20049;-87
2022/09/16 07:10:25;;;;;;;0.30;0.30;;;;;;;24.42;33.90;97591.59;5028620;28;20067;-86
2022/09/16 07:12:51;;;;;;;0.30;0.30;;;;;;;24.42;33.82;97595.09;5020506;28;20028;-87
2022/09/16 07:15:16;;;;;;;0.98;0.40;;;;;;;24.42;33.96;97586.91;5024999;28;20033;-87
2022/09/16 07:17:42;;;;;;;0.20;0.20;;;;;;;24.44;34.02;97590.13;5027721;28;20033;-86
2022/09/16 07:20:08;;;;;;;0.40;0.40;;;;;;;24.44;33.72;97584.66;5023394;28;20077;-86
2022/09/16 07:22:34;;;;;;;1.13;0.40;;;;;;;24.44;34.12;97590.13;5028044;28;20327;-86
2022/09/16 07:24:59;;;;;;;1.40;0.30;;;;;;;24.43;34.06;97585.78;5025627;28;20029;-86
2022/09/16 07:27:25;;;;;;;0.38;0.38;;;;;;;24.46;34.12;97593.28;5027421;28;20030;-86
2022/09/16 07:29:52;;;;;;;0.32;0.32;;;;;;;24.45;33.64;97588.94;5026955;28;20471;-86
2022/09/16 07:32:18;;;;;;;0.30;0.30;;;;;;;24.49;33.76;97589.06;5022787;28;20144;-86
2022/09/16 07:34:44;;;;;;;0.50;0.30;;;;;;;24.50;33.77;97587.91;5027453;28;20044;-87
2022/09/16 07:37:09;;;;;;;0.20;0.20;;;;;;;24.51;33.88;97589.53;5023207;28;20117;-87
2022/09/16 07:39:35;;;;;;;0.30;0.30;;;;;;;24.51;33.72;97590.31;5026248;28;20501;-86
2022/09/16 07:42:03;;;;;;;0.45;0.35;;;;;;;24.53;34.00;97589.97;5024665;28;20040;-86
2022/09/16 07:44:28;;;;;;;0.30;0.30;;;;;;;24.53;33.84;97589.97;5024891;28;20028;-87
2022/09/16 07:46:54;;;;;;;0.28;0.28;;;;;;;24.54;33.81;97591.56;5027771;28;20037;-87
2022/09/16 07:49:19;;;;;;;0.35;0.35;;;;;;;24.54;33.83;97595.09;5020982;28;20029;-87
2022/09/16 07:51:45;;;;;;;0.45;0.40;;;;;;;24.55;34.04;97588.50;5024190;28;20548;-86
2022/09/16 07:54:13;;;;;;;0.45;0.30;;;;;;;24.58;33.94;97588.94;5024798;28;20029;-87
2022/09/16 07:56:38;;;;;;;0.65;0.30;;;;;;;24.57;33.80;97596.34;5024814;28;20501;-87
2022/09/16 07:59:05;;;;;;;0.63;0.20;;;;;;;24.60;33.89;97597.59;5026398;28;20029;-87
2022/09/16 08:01:31;;;;;;;0.30;0.30;;;;;;;24.60;33.57;97603.03;5021387;28;20026;-87
2022/09/16 08:03:57;;;;;;;0.57;0.30;;;;;;;24.61;33.71;97599.16;5031149;28;20055;-87
2022/09/16 08:06:27;;;;;;;0.20;0.20;;;;;;;24.62;33.60;97604.28;5026115;28;20029;-87
2022/09/16 08:08:55;;;;;;;0.30;0.30;;;;;;;24.63;33.52;97605.06;5026633;28;20375;-87
2022/09/16 08:11:20;;;;;;;1.23;0.40;;;;;;;24.65;33.60;97600.06;5030533;28;20022;-87
2022/09/16 08:13:46;;;;;;;0.25;0.25;;;;;;;24.66;33.97;97604.38;5027691;28;20079;-87
2022/09/16 08:16:14;;;;;;;0.30;0.30;;;;;;;24.64;33.83;97591.06;5030608;28;20466;-87
2022/09/16 08:18:39;;;;;;;0.43;0.30;;;;;;;24.69;33.64;97595.47;5024827;28;20925;-87
2022/09/16 08:21:10;;;;;;;0.25;0.25;;;;;;;24.69;33.87;97599.00;5028058;28;20041;-86
2022/09/16 08:23:36;;;;;;;0.30;0.30;;;;;;;24.73;33.79;97601.81;5031571;28;20311;-87
2022/09/16 08:26:01;;;;;;;0.47;0.30;;;;;;;24.73;33.99;97596.34;4994504;28;20375;-87
2022/09/16 08:28:27;;;;;;;0.20;0.20;;;;;;;24.74;33.60;97595.22;5029389;28;20067;-87
2022/09/16 08:30:53;;;;;;;0.20;0.20;;;;;;;24.75;33.67;97596.81;5011903;28;20036;-87
2022/09/16 08:33:20;;;;;;;0.35;0.35;;;;;;;24.76;33.68;97587.47;5030765;28;20025;-87
2022/09/16 08:35:47;;;;;;;0.30;0.30;;;;;;;24.78;33.86;97596.09;5029787;28;20026;-87
2022/09/16 08:38:12;;;;;;;0.30;0.30;;;;;;;24.78;33.77;97601.56;5024016;28;20477;-87
2022/09/16 08:40:42;;;;;;;0.20;0.20;;;;;;;24.78;33.83;97601.56;5029729;28;20037;-87
2022/09/16 08:43:14;;;;;;;0.38;0.30;;;;;;;24.79;33.92;97597.72;5028023;28;20133;-87
2022/09/16 08:45:48;;;;;;;0.50;0.25;;;;;;;24.79;33.80;97597.72;5029143;28;20021;-88
2022/09/16 08:48:21;;;;;;;0.52;0.30;;;;;;;24.80;33.83;97596.56;5027090;28;20050;-87
2022/09/16 08:50:47;;;;;;;0.30;0.28;;;;;;;24.82;33.89;97602.47;5026825;28;20482;-87
2022/09/16 08:53:19;;;;;;;0.20;0.20;;;;;;;24.84;33.75;97593.94;5029587;28;20029;-86
2022/09/16 08:55:46;;;;;;;0.30;0.30;;;;;;;24.85;33.78;97601.78;5024327;28;20026;-87
2022/09/16 08:58:19;;;;;;;0.28;0.20;;;;;;;24.86;33.61;97597.09;5029231;28;20025;-87
2022/09/16 09:00:48;;;;;;;0.20;0.20;;;;;;;24.68;33.58;97570.13;5012463;28;20064;-87
2022/09/16 09:03:18;;;;;;;0.22;0.22;;;;;;;24.88;33.88;97594.81;5028286;28;20033;-87
2022/09/16 09:05:56;;;;;;;0.30;0.30;;;;;;;24.90;33.82;97598.75;5028445;28;20067;-87
2022/09/16 09:09:03;;;;;;;0.30;0.30;;;;;;;24.92;33.57;97601.97;5024734;28;20030;-87
2022/09/16 09:11:31;;;;;;;0.25;0.25;;;;;;;24.93;33.86;97598.06;5020825;28;20490;-87
2022/09/16 09:14:19;;;;;;;0.30;0.30;;;;;;;24.95;33.79;97595.00;5025699;28;20488;-87
2022/09/16 09:16:52;;;;;;;0.20;0.20;;;;;;;24.93;33.73;97598.06;5028052;28;20038;-87
2022/09/16 09:20:00;;;;;;;0.22;0.22;;;;;;;24.92;33.77;97582.03;5011781;28;20041;-87
2022/09/16 09:22:34;;;;;;;2.13;0.30;;;;;;;24.99;33.52;97595.91;5028158;28;20064;-87
2022/09/16 09:25:24;;;;;;;0.30;0.20;;;;;;;25.01;33.54;97590.06;5023240;28;20017;-87
2022/09/16 09:28:02;;;;;;;0.10;0.10;;;;;;;25.01;33.83;97590.88;5028807;28;20029;-86
2022/09/16 09:30:28;;;;;;;0.30;0.30;;;;;;;25.00;33.75;97592.00;5026447;28;20026;-86
2022/09/16 09:33:09;;;;;;;0.30;0.30;;;;;;;25.04;33.81;97592.09;5008644;28;20026;-87
2022/09/16 09:36:08;;;;;;;0.22;0.20;;;;;;;25.05;33.73;97594.47;5030109;28;20047;-87
2022/09/16 09:38:52;;;;;;;0.20;0.20;;;;;;;25.06;33.84;97593.34;5028140;28;20505;-87
2022/09/16 09:41:26;;;;;;;0.20;0.20;;;;;;;25.05;33.79;97597.19;5028904;28;20025;-87
2022/09/16 09:44:20;;;;;;;0.30;0.30;;;;;;;25.08;33.51;97598.47;5025964;28;20071;-87
2022/09/16 09:46:48;;;;;;;0.30;0.30;;;;;;;25.07;33.44;97589.44;5026412;28;20038;-88
2022/09/16 09:49:20;;;;;;;0.20;0.20;;;;;;;25.11;33.83;97597.72;5027718;28;20505;-87
2022/09/16 09:51:53;;;;;;;0.30;0.30;;;;;;;25.13;33.88;97600.94;5012564;28;20053;-88
2022/09/16 09:54:25;;;;;;;0.30;0.30;;;;;;;25.14;33.71;97590.78;5025632;28;20077;-88
2022/09/16 09:56:53;;;;;;;0.30;0.30;;;;;;;25.16;33.70;97594.72;5027398;28;20033;-88
2022/09/16 09:59:27;;;;;;;0.38;0.38;;;;;;;25.17;33.53;97593.59;5028399;28;20029;-88
2022/09/16 10:01:54;;;;;;;0.20;0.20;;;;;;;25.17;33.47;97596.34;5024466;28;20056;-88
2022/09/16 10:04:20;;;;;;;0.30;0.30;;;;;;;25.18;33.53;97597.94;5026649;28;20033;-87
2022/09/16 10:06:46;;;;;;;0.20;0.20;;;;;;;25.18;33.57;97597.94;5027726;28;20049;-87
2022/09/16 10:09:12;;;;;;;0.30;0.30;;;;;;;25.21;33.46;97597.19;5008526;28;21296;-87
2022/09/16 10:11:49;;;;;;;0.35;0.30;;;;;;;25.21;33.45;97599.16;5028177;28;20025;-88
2022/09/16 10:14:40;;;;;;;0.25;0.20;;;;;;;25.22;33.55;97598.81;5023104;28;20451;-87
2022/09/16 10:17:15;;;;;;;0.63;0.20;;;;;;;25.23;33.47;97594.94;5027957;28;20501;-86
2022/09/16 10:20:05;;;;;;;0.30;0.30;;;;;;;25.23;33.52;97596.84;5005192;28;20132;-87
2022/09/16 10:22:32;;;;;;;0.85;0.32;;;;;;;25.25;33.71;97594.56;5017054;28;20481;-87
2022/09/16 10:25:06;;;;;;;0.55;0.20;;;;;;;25.20;33.56;97589.34;5024556;28;20034;-87
2022/09/16 10:27:34;;;;;;;0.20;0.20;;;;;;;25.21;33.86;97590.94;5026609;28;20040;-87
2022/09/16 10:30:04;;;;;;;0.30;0.30;;;;;;;25.29;33.48;97598.22;5026320;28;20032;-86
2022/09/16 10:32:51;;;;;;;0.52;0.20;;;;;;;25.30;33.72;97605.25;5024906;28;20025;-86
2022/09/16 10:35:22;;;;;;;0.20;0.20;;;;;;;25.30;33.48;97606.06;5028747;28;20108;-87
2022/09/16 10:37:56;;;;;;;0.30;0.30;;;;;;;25.32;33.58;97604.91;5023389;28;20026;-86
2022/09/16 10:40:22;;;;;;;;;;;;;;;25.35;33.56;97607.72;5026828;28;20455;-84
2022/09/16 10:42:52;;;;;;;0.30;0.30;;;;;;;25.35;33.66;97598.72;5024367;28;19924;-87
2022/09/16 10:45:28;;;;;;;0.20;0.20;;;;;;;25.36;33.83;97600.34;5026089;28;20470;-86
2022/09/16 10:47:58;;;;;;;0.40;0.30;;;;;;;25.36;33.74;97603.06;5025248;28;20057;-87
2022/09/16 10:50:24;;;;;;;0.70;0.25;;;;;;;25.37;33.73;97601.91;5024839;28;20030;-87
2022/09/16 10:52:50;;;;;;;0.68;0.40;;;;;;;25.37;33.82;97596.44;5027539;28;20422;-86
2022/09/16 10:55:18;;;;;;;0.95;0.30;;;;;;;25.37;33.46;97597.25;5022018;28;20072;-86
2022/09/16 10:57:45;;;;;;;0.20;0.20;;;;;;;25.37;33.53;97601.91;5026095;28;20030;-87
2022/09/16 11:00:21;;;;;;;0.10;0.10;;;;;;;25.38;33.42;97598.03;5026471;28;20033;-86
2022/09/16 11:03:12;;;;;;;0.30;0.30;;;;;;;25.39;33.55;97594.13;5025980;28;20104;-87
2022/09/16 11:05:51;;;;;;;0.20;0.20;;;;;;;25.38;33.84;97596.09;5027922;28;20371;-87
2022/09/16 11:09:14;;;;;;;0.30;0.30;;;;;;;25.40;33.68;97598.47;5020195;28;20100;-86
2022/09/16 11:12:10;;;;;;;0.20;0.20;;;;;;;25.41;33.67;97592.66;5005361;28;20076;-87
2022/09/16 11:14:43;;;;;;;0.20;0.20;;;;;;;25.39;33.40;97591.41;4989172;28;20029;-86
2022/09/16 11:17:35;;;;;;;0.73;0.40;;;;;;;25.42;33.84;97596.16;5014362;28;20209;-86
2022/09/16 11:20:22;;;;;;;0.65;0.35;;;;;;;25.42;33.46;97607.91;5023700;28;20041;-86
2022/09/16 11:23:19;;;;;;;0.30;0.30;;;;;;;25.42;33.84;97601.63;5028417;28;20034;-87
2022/09/16 11:26:07;;;;;;;0.20;0.20;;;;;;;25.44;33.72;97604.81;5012253;28;20380;-86
2022/09/16 11:28:54;;;;;;;0.20;0.20;;;;;;;25.44;33.61;97604.81;5027508;28;20031;-86
2022/09/16 11:32:04;;;;;;;0.70;0.20;;;;;;;25.43;33.50;97601.28;5018255;28;20038;-87
2022/09/16 11:34:49;;;;;;;0.73;0.28;;;;;;;25.39;33.64;97597.69;5022081;28;20051;-87
2022/09/16 11:37:56;;;;;;;0.20;0.20;;;;;;;25.46;33.51;97610.75;5019336;28;20024;-88
2022/09/16 11:40:31;;;;;;;0.20;0.20;;;;;;;25.46;33.81;97602.53;5020087;28;20034;-87
2022/09/16 11:43:15;;;;;;;0.25;0.25;;;;;;;25.47;33.57;97609.56;5015850;28;20101;-87
2022/09/16 11:45:49;;;;;;;0.28;0.20;;;;;;;25.47;33.62;97609.56;5022241;28;20036;-87
2022/09/16 11:48:34;;;;;;;0.65;0.20;;;;;;;25.47;33.75;97601.38;5018829;28;20092;-87
2022/09/16 11:51:22;;;;;;;0.20;0.20;;;;;;;25.43;33.91;97601.28;5020685;28;20029;-87
2022/09/16 11:54:07;;;;;;;0.35;0.20;;;;;;;25.47;33.63;97602.19;5020173;28;20478;-86
2022/09/16 11:56:36;;;;;;;;;;;;;;;25.46;33.70;97597.84;5020179;28;20033;-84